Time;durP1;ratioP1;P1;durP2;ratioP2;P2;SDS_P1;SDS_P2;PMS_P1;PMS_P2;Temp;Humidity;BMP_temperature;BMP_pressure;BME280_temperature;BME280_humidity;BME280_pressure;Samples;Min_cycle;Max_cycle;Signal;HPM_P1;HPM_P2
2022/05/11 00:04:05;;;;;;;;;;;;;;;15.17;69.21;95793.41;10430393;28;3270;-73
2022/05/11 00:09:10;;;;;;;;;;;16.20;99.90;;;15.06;70.45;95788.19;10430898;28;4244;-74
2022/05/11 00:14:13;;;;;;;;;;;16.00;99.90;;;15.05;70.33;95789.28;10436694;28;2210;-74
2022/05/11 00:19:19;;;;;;;;;;;15.90;99.90;;;15.02;71.62;95775.56;10418724;28;1915;-74
2022/05/11 00:24:22;;;;;;;;;;;16.00;99.90;;;14.86;72.80;95783.19;10421514;28;2349;-75
2022/05/11 00:29:25;;;;;;;;;;;16.00;99.90;;;14.82;72.68;95784.88;10414819;28;2012;-75
2022/05/11 00:34:28;;;;;;;;;;;15.80;99.90;;;14.70;73.82;95785.38;10414290;28;1933;-75
2022/05/11 00:39:31;;;;;;;;;;;15.70;99.90;;;14.70;74.00;95776.47;10432745;28;1959;-74
2022/05/11 00:44:35;;;;;;;;;;;15.70;99.90;;;14.53;75.29;95769.72;10419151;28;1946;-74
2022/05/11 00:49:38;;;;;;;;;;;15.70;99.90;;;14.52;75.85;95764.63;10424795;28;1886;-74
2022/05/11 00:54:41;;;;;;;;;;;15.50;99.90;;;14.43;76.75;95772.56;10436514;28;1848;-74
2022/05/11 00:59:44;;;;;;;;;;;15.40;99.90;;;14.40;77.53;95773.19;10434530;28;1989;-74
2022/05/11 01:04:47;;;;;;;;;;;15.40;99.90;;;14.30;77.56;95765.22;10416133;28;4064;-74
2022/05/11 01:09:51;;;;;;;;;;;15.30;99.90;;;14.23;79.31;95765.63;10440408;28;4491;-73
2022/05/11 01:14:54;;;;;;;;;;;15.20;99.90;;;14.13;79.12;95765.00;10424619;28;2052;-73
2022/05/11 01:20:06;;;;;;;;;;;15.20;99.90;;;14.12;80.03;95761.47;10435192;28;1926;-74
2022/05/11 01:25:17;;;;;;;;;;;15.10;99.90;;;14.04;80.39;95768.38;10417056;28;2019;-74
2022/05/11 01:30:21;;;;;;;;;;;15.10;99.90;;;13.98;81.03;95766.03;10429960;28;1926;-73
2022/05/11 01:35:25;;;;;;;;;;;14.90;99.90;;;13.91;81.61;95765.63;10441497;28;1976;-74
2022/05/11 01:40:29;;;;;;;;;;;15.00;99.90;;;13.85;82.24;95759.50;10426622;28;1930;-74
2022/05/11 01:45:32;;;;;;;;;;;14.90;99.90;;;13.83;82.56;95756.28;10439402;28;2063;-75
2022/05/11 01:50:35;;;;;;;;;;;14.80;99.90;;;13.89;82.09;95757.00;10423039;28;2390;-73
2022/05/11 01:55:39;;;;;;;;;;;14.80;99.90;;;13.83;82.67;95756.28;10435374;28;1942;-75
2022/05/11 02:00:42;;;;;;;;;;;14.80;99.90;;;13.83;82.47;95753.59;10422976;28;1934;-75
2022/05/11 02:11:06;;;;;;;;;;;14.80;99.90;;;13.92;82.07;95748.31;10441112;28;2416;-74
2022/05/11 02:16:11;;;;;;;;;;;14.80;99.90;;;14.01;81.67;95750.06;10428009;28;2053;-74
2022/05/11 02:21:15;;;;;;;;;;;14.90;99.90;;;13.93;81.15;95745.34;10439447;28;2076;-74
2022/05/11 02:26:19;;;;;;;;;;;14.90;99.90;;;13.85;81.97;95753.28;10420994;28;1987;-73
2022/05/11 02:31:23;;;;;;;;;;;14.80;99.90;;;13.80;82.02;95746.06;10436386;28;1976;-74
2022/05/11 02:36:26;;;;;;;;;;;14.70;99.90;;;13.71;82.69;95745.94;10431747;28;2014;-74
2022/05/11 02:41:30;;;;;;;;;;;14.70;99.90;;;13.72;82.37;95741.31;10426726;28;1989;-74
2022/05/11 02:46:33;;;;;;;;;;;14.70;99.90;;;13.63;82.80;95748.50;10420709;28;1980;-74
2022/05/11 02:51:35;;;;;;;;;;;14.60;99.90;;;13.57;83.18;95745.06;10423656;28;2041;-74
2022/05/11 02:56:38;;;;;;;;;;;14.60;99.90;;;13.57;83.57;95744.28;10425386;28;1903;-73
2022/05/11 03:01:42;;;;;;;;;;;14.60;99.90;;;13.58;83.24;95745.88;10437705;28;1994;-74
2022/05/11 03:06:47;;;;;;;;;;;14.60;99.90;;;13.53;83.69;95744.84;10425318;28;4116;-74
2022/05/11 03:11:50;;;;;;;;;;;14.50;99.90;;;13.42;83.30;95756.09;10429158;28;4030;-75
2022/05/11 03:16:53;;;;;;;;;;;14.50;99.90;;;13.50;83.30;95752.75;10440577;28;1981;-74
2022/05/11 03:21:56;;;;;;;;;;;14.40;99.90;;;13.57;83.00;95747.78;10423125;28;1913;-74
2022/05/11 03:26:59;;;;;;;;;;;14.50;99.90;;;13.69;81.89;95755.44;10411831;28;1928;-75
2022/05/11 03:37:25;;;;;;;;;;;14.60;99.90;;;14.00;79.59;95761.97;10430799;28;2045;-74
2022/05/11 03:42:29;;;;;;;;;;;14.70;99.90;;;13.87;80.03;95757.31;10428914;28;1902;-73
2022/05/11 03:47:31;;;;;;;;;;;14.80;99.90;;;13.76;80.33;95766.66;10436648;28;1855;-74
2022/05/11 03:52:34;;;;;;;;;;;14.70;99.90;;;13.78;80.13;95761.78;10430355;28;1989;-74
2022/05/11 03:57:38;;;;;;;;;;;14.60;99.90;;;13.82;80.42;95762.78;10434322;28;2056;-73
2022/05/11 04:02:41;;;;;;;;;;;14.70;99.90;;;13.82;80.21;95753.88;10431064;28;1989;-74
2022/05/11 04:07:44;;;;;;;;;;;14.70;99.90;;;13.79;79.79;95755.25;10435003;28;4140;-74
2022/05/11 04:12:48;;;;;;;;;;;14.60;99.90;;;13.86;79.57;95750.28;10420074;28;2227;-74
2022/05/11 04:17:51;;;;;;;;;;;14.70;99.90;;;14.06;78.37;95752.69;10433862;28;2245;-73
2022/05/11 04:22:55;;;;;;;;;;;14.80;99.90;;;14.15;78.22;95749.28;10430271;28;2049;-75
2022/05/11 04:27:58;;;;;;;;;;;14.90;99.90;;;14.29;77.01;95748.22;10400386;28;1981;-73
2022/05/11 04:33:01;;;;;;;;;;;15.00;99.90;;;14.62;75.40;95741.97;10409093;28;2464;-74
2022/05/11 04:38:03;;;;;;;;;;;15.20;99.90;;;14.96;73.55;95757.84;10413606;28;2231;-74
2022/05/11 04:43:07;;;;;;;;;;;15.40;99.90;;;15.49;70.79;95752.63;10416600;28;2586;-74
2022/05/11 04:48:10;;;;;;;;;;;16.10;99.90;;;16.09;68.42;95759.66;10411238;28;1986;-78
2022/05/11 04:53:13;;;;;;;;;;;16.30;99.90;;;16.52;65.83;95773.50;10422889;28;2139;-79
2022/05/11 04:58:16;;;;;;;;;;;16.80;99.90;;;17.03;63.99;95766.72;10419162;28;2385;-78
2022/05/11 05:03:19;;;;;;;;;;;17.30;99.90;;;17.26;62.14;95770.94;10408954;28;2385;-77
2022/05/11 05:08:23;;;;;;;;;;;17.70;99.90;;;17.36;61.79;95774.47;10424634;28;4121;-76
2022/05/11 05:13:29;;;;;;;;;;;17.90;99.90;;;17.87;59.07;95773.75;10424064;28;1906;-75
2022/05/11 05:18:33;;;;;;;;;;;18.10;99.90;;;18.04;58.07;95772.97;10434523;28;2116;-79
2022/05/11 05:23:36;;;;;;;;;;;18.50;99.90;;;18.49;55.98;95773.38;10428589;28;1989;-77
2022/05/11 05:34:00;;;;;;;;;;;19.20;99.90;;;19.23;53.94;95782.28;10440293;28;1936;-79
2022/05/11 05:39:04;;;;;;;;;;;19.50;99.90;;;19.22;53.37;95784.22;10440597;28;1687;-78
2022/05/11 05:44:07;;;;;;;;;;;19.80;99.90;;;18.63;55.31;95784.06;10443938;28;1914;-78
2022/05/11 05:49:10;;;;;;;;;;;19.50;99.90;;;19.14;53.49;95787.75;10430019;28;1965;-79
2022/05/11 05:54:13;;;;;;;;;;;19.60;99.90;;;19.66;52.55;95792.97;10433238;28;2355;-78
2022/05/11 05:59:18;;;;;;;;;;;20.00;99.90;;;20.15;51.36;95795.94;10431116;28;1949;-77
2022/05/11 06:04:21;;;;;;;;;;;20.30;99.90;;;20.67;49.65;95787.28;10447560;28;1983;-79
2022/05/11 06:09:24;;;;;;;;;;;20.70;99.90;;;20.94;48.03;95789.41;10452794;28;4162;-76
2022/05/11 06:14:27;;;;;;;;;;;21.10;99.90;;;21.04;48.34;95797.16;10438967;28;1805;-79
2022/05/11 06:19:31;;;;;;;;;;;21.40;99.90;;;21.52;47.67;95792.88;10436285;28;1829;-79
2022/05/11 06:24:34;;;;;;;;;;;21.70;99.90;;;21.62;47.03;95788.06;10432527;28;2029;-75
2022/05/11 06:29:37;;;;;;;;;;;21.90;99.90;;;21.71;46.87;95786.03;10423401;28;1873;-73
2022/05/11 06:34:40;;;;;;;;;;;22.10;99.90;;;21.63;46.37;95789.66;10421351;28;1860;-75
2022/05/11 06:39:45;;;;;;;;;;;22.30;99.90;;;22.02;44.35;95786.19;10427029;28;1719;-75
2022/05/11 06:44:49;;;;;;;;;;;22.50;99.90;;;21.96;45.99;95795.78;10416118;28;1985;-75
2022/05/11 06:49:52;;;;;;;;;;;22.50;99.90;;;22.41;44.35;95797.50;10429310;28;1872;-73
2022/05/11 07:00:16;;;;;;;;;;;22.80;99.90;;;22.21;44.56;95788.31;10438280;28;1977;-74
2022/05/11 07:05:19;;;;;;;;;;;22.60;99.90;;;22.48;45.02;95792.22;10454001;28;1765;-72
2022/05/11 07:10:22;;;;;;;;;;;22.90;99.90;;;22.57;45.11;95783.81;10444946;28;4303;-72
2022/05/11 07:15:26;;;;;;;;;;;23.00;99.90;;;22.62;45.38;95778.88;10438995;28;1762;-73
2022/05/11 07:20:30;;;;;;;;;;;23.00;99.90;;;22.57;46.01;95781.88;10423786;28;2004;-74
2022/05/11 07:25:34;;;;;;;;;;;23.20;99.90;;;22.79;45.36;95782.47;10429813;28;1836;-74
2022/05/11 07:30:38;;;;;;;;;;;23.20;99.90;;;23.18;44.66;95773.31;10436671;28;1789;-78
2022/05/11 07:35:42;;;;;;;;;;;23.40;99.90;;;23.18;45.02;95781.53;10448738;28;1849;-79
2022/05/11 07:40:45;;;;;;;;;;;23.60;99.90;;;23.31;45.25;95773.22;10426008;28;2081;-79
2022/05/11 07:45:48;;;;;;;;;;;23.80;99.90;;;23.25;44.34;95769.94;10423487;28;1810;-78
2022/05/11 07:50:52;;;;;;;;;;;23.90;99.90;;;23.40;44.39;95763.63;10434035;28;1913;-79
2022/05/11 08:01:11;;;;;;;;;;;24.00;99.90;;;23.39;43.17;95764.00;10427318;28;1922;-75
2022/05/11 08:06:16;;;;;;;;;;;24.20;99.90;;;23.59;42.66;95759.34;10409409;28;1758;-73
2022/05/11 08:11:19;;;;;;;;;;;24.00;99.90;;;23.41;42.99;95758.94;10408857;28;4061;-74
2022/05/11 08:16:23;;;;;;;;;;;24.10;99.90;;;23.87;42.29;95768.28;10430062;28;2110;-77
2022/05/11 08:21:26;;;;;;;;;;;24.30;99.90;;;24.02;42.00;95758.38;10441435;28;1918;-75
2022/05/11 08:26:29;;;;;;;;;;;24.50;99.90;;;23.90;42.70;95764.00;10431976;28;1874;-77
2022/05/11 08:36:53;;;;;;;;;;;25.00;99.90;;;24.77;41.10;95749.69;10434098;28;1888;-77
2022/05/11 08:41:57;;;;;;;;;;;25.20;99.90;;;24.84;40.19;95753.72;10427394;28;1914;-77
2022/05/11 08:47:02;;;;;;;;;;;25.40;99.90;;;24.81;40.74;95741.47;10415605;28;1841;-76
2022/05/11 08:52:05;;;;;;;;;;;25.30;99.90;;;24.40;41.65;95743.09;10438484;28;1865;-78
2022/05/11 08:57:08;;;;;;;;;;;;;;;24.74;41.33;95744.91;10418634;28;1924;-77
2022/05/11 09:02:11;;;;;;;;;;;25.30;99.90;;;24.52;40.38;95740.97;10420275;28;1946;-78
2022/05/11 09:07:14;;;;;;;;;;;25.20;99.90;;;24.56;40.77;95748.47;10436658;28;1829;-76
2022/05/11 09:12:17;;;;;;;;;;;25.20;99.90;;;24.68;41.67;95745.56;10431598;28;4280;-74
2022/05/11 09:17:21;;;;;;;;;;;25.20;99.90;;;24.88;40.66;95743.59;10439301;28;3490;-76
2022/05/11 09:22:24;;;;;;;;;;;25.40;99.90;;;24.91;40.93;95743.63;10437757;28;2020;-74
2022/05/11 09:27:27;;;;;;;;;;;25.50;99.90;;;25.03;40.05;95737.16;10445097;28;1920;-74
2022/05/11 09:32:31;;;;;;;;;;;25.70;99.80;;;25.03;40.70;95737.16;10436716;28;1841;-76
2022/05/11 09:37:34;;;;;;;;;;;25.70;99.90;;;25.31;38.89;95734.88;10438986;28;1885;-75
2022/05/11 09:42:37;;;;;;;;;;;25.80;99.70;;;25.48;38.32;95735.53;10429891;28;1918;-75
2022/05/11 09:48:02;;;;;;;;;;;26.10;99.90;;;25.72;36.87;95726.06;10420658;28;1897;-75
2022/05/11 09:53:04;;;;;;;;;;;26.30;99.90;;;25.05;35.55;95729.34;10436803;28;1845;-76
2022/05/11 09:58:07;;;;;;;;;;;26.00;99.90;;;25.20;35.04;95731.19;10425960;28;2380;-75
2022/05/11 10:03:10;;;;;;;;;;;25.80;99.90;;;25.24;34.45;95721.00;10428358;28;1902;-76
2022/05/11 10:08:13;;;;;;;;;;;26.00;99.90;;;25.38;33.86;95709.44;10430067;28;1716;-76
2022/05/11 10:13:16;;;;;;;;;;;26.00;99.70;;;25.22;33.53;95715.09;10426137;28;1552;-77
2022/05/11 10:23:40;;;;;;;;;;;26.00;99.90;;;25.66;33.10;95700.81;10443510;28;1958;-75
2022/05/11 10:28:43;;;;;;;;;;;26.10;99.60;;;25.52;34.91;95700.63;10436754;28;1846;-76
2022/05/11 10:33:46;;;;;;;;;;;26.30;99.90;;;25.51;32.76;95699.81;10434849;28;1774;-75
2022/05/11 10:38:57;;;;;;;;;;;26.30;97.00;;;25.65;31.19;95693.72;10427280;28;1820;-75
2022/05/11 10:44:00;;;;;;;;;;;26.30;95.50;;;26.09;31.15;95691.16;10427992;28;1922;-75
2022/05/11 10:49:03;;;;;;;;;;;26.70;99.90;;;26.86;29.97;95689.63;10440723;28;1822;-75
2022/05/11 10:54:06;;;;;;;;;;;28.00;86.00;;;27.70;28.12;95681.59;10426312;28;2319;-76
2022/05/11 10:59:09;;;;;;;;;;;29.20;80.90;;;27.22;28.87;95676.13;10446251;28;1794;-76
2022/05/11 11:04:12;;;;;;;;;;;29.50;80.30;;;27.45;28.65;95668.41;10446832;28;1973;-76
2022/05/11 11:09:15;;;;;;;;;;;29.30;78.20;;;27.17;27.75;95662.72;10462701;28;1794;-74
2022/05/11 11:14:18;;;;;;;;;;;29.40;75.90;;;27.60;27.33;95652.69;10432396;28;2054;-76
2022/05/11 11:19:38;;;;;;;;;;;29.80;74.70;;;27.28;27.89;95643.44;10426816;28;1771;-76
2022/05/11 11:24:42;;;;;;;;;;;30.00;74.30;;;27.52;27.48;95645.56;10443707;28;1989;-75
2022/05/11 11:29:45;;;;;;;;;;;29.90;73.70;;;27.04;28.03;95628.25;10433768;28;1761;-75
2022/05/11 11:34:48;;;;;;;;;;;29.30;73.70;;;26.22;29.26;95628.34;10432894;28;1932;-77
2022/05/11 11:39:53;;;;;;;;;;;28.10;74.40;;;26.11;29.48;95627.44;10437250;28;1813;-76
2022/05/11 11:44:56;;;;;;;;;;;27.40;75.60;;;26.05;29.29;95617.91;10446233;28;1967;-75
2022/05/11 11:49:59;;;;;;;;;;;27.00;77.30;;;25.96;30.25;95614.66;10423752;28;1829;-75
2022/05/11 11:55:02;;;;;;;;;;;26.90;79.30;;;25.90;29.49;95607.91;10433447;28;2338;-71
2022/05/11 12:00:06;;;;;;;;;;;26.80;79.70;;;26.04;27.30;95599.81;10423260;28;1833;-70
2022/05/11 12:05:09;;;;;;;;;;;27.10;77.70;;;26.26;27.36;95598.84;10435357;28;1983;-70
2022/05/11 12:15:38;;;;;;;;;;;27.20;70.10;;;26.28;25.79;95588.25;10356018;28;1767;-68
2022/05/11 12:20:41;;;;;;;;;;;27.10;70.20;;;26.31;25.59;95587.47;10441089;28;1670;-69
2022/05/11 12:25:51;;;;;;;;;;;27.30;69.80;;;26.33;26.81;95582.38;10450253;28;1900;-70
2022/05/11 12:30:55;;;;;;;;;;;27.20;70.80;;;26.63;26.45;95584.25;10440063;28;1825;-70
2022/05/11 12:35:58;;;;;;;;;;;27.40;70.80;;;26.85;25.66;95568.66;10412123;28;2083;-70
2022/05/11 12:41:01;;;;;;;;;;;27.70;69.30;;;26.87;24.45;95572.59;10434688;28;1877;-70
2022/05/11 12:46:04;;;;;;;;;;;27.90;67.70;;;27.01;24.82;95573.88;10431707;28;1903;-70
2022/05/11 12:51:07;;;;;;;;;;;27.80;67.90;;;26.93;24.14;95557.28;10437294;28;1864;-69
2022/05/11 12:56:10;;;;;;;;;;;27.90;66.50;;;27.05;24.23;95541.59;10445691;28;1790;-70
2022/05/11 13:01:13;;;;;;;;;;;28.00;67.10;;;27.17;23.12;95544.06;10437396;28;1829;-71
2022/05/11 13:06:17;;;;;;;;;;;28.00;66.20;;;26.95;24.08;95535.63;10426102;28;2127;-70
2022/05/11 13:11:20;;;;;;;;;;;27.90;65.60;;;26.82;24.59;95528.84;10434525;28;2083;-69
2022/05/11 13:16:23;;;;;;;;;;;27.80;66.20;;;27.09;24.72;95525.88;10452098;28;1862;-70
2022/05/11 13:21:26;;;;;;;;;;;27.90;66.40;;;26.90;25.00;95519.44;10449897;28;1936;-69
2022/05/11 13:26:29;;;;;;;;;;;28.00;67.00;;;26.90;25.12;95513.13;10435411;28;1918;-72
2022/05/11 13:31:33;;;;;;;;;;;27.90;67.00;;;26.84;25.15;95487.88;10461629;28;1806;-72
2022/05/11 13:36:36;;;;;;;;;;;27.80;66.80;;;27.20;24.45;95490.84;10432574;28;1866;-70
2022/05/11 13:41:39;;;;;;;;;;;27.90;66.20;;;27.25;23.94;95478.66;10426775;28;1810;-76
2022/05/11 13:52:02;;;;;;;;;;;28.00;65.40;;;27.34;24.68;95468.81;10437082;28;1814;-74
2022/05/11 13:57:08;;;;;;;;;;;;;;;27.45;23.98;95450.34;10454693;28;1855;-74
2022/05/11 14:02:11;;;;;;;;;;;28.30;65.40;;;27.59;23.98;95460.63;10451823;28;1914;-74
2022/05/11 14:07:15;;;;;;;;;;;28.30;65.90;;;27.51;25.23;95452.72;10437285;28;2000;-73
2022/05/11 14:12:18;;;;;;;;;;;28.50;67.00;;;27.72;24.55;95448.03;10428665;28;1858;-74
2022/05/11 14:17:21;;;;;;;;;;;28.60;65.80;;;27.23;24.90;95440.44;10441353;28;1872;-74
2022/05/11 14:22:24;;;;;;;;;;;28.40;65.40;;;27.60;24.27;95439.31;10440333;28;1918;-74
2022/05/11 14:27:27;;;;;;;;;;;28.40;65.40;;;27.59;24.33;95433.00;10442113;28;1816;-74
2022/05/11 14:32:32;;;;;;;;;;;28.40;65.20;;;27.83;24.03;95430.72;10426159;28;1821;-74
2022/05/11 14:37:38;;;;;;;;;;;28.50;65.10;;;28.06;24.07;95427.53;10421610;28;2378;-72
2022/05/11 14:42:41;;;;;;;;;;;28.80;64.80;;;28.03;23.92;95429.13;10440249;28;1914;-72
2022/05/11 14:47:46;;;;;;;;;;;28.90;64.10;;;27.95;24.77;95428.34;10432243;28;1837;-75
2022/05/11 14:52:49;;;;;;;;;;;29.00;65.30;;;28.13;23.81;95416.53;10430429;28;1845;-71
2022/05/11 15:03:13;;;;;;;;;;;27.20;62.70;;;28.36;23.89;95411.38;10435777;28;1909;-73
2022/05/11 15:08:16;;;;;;;;;;;29.10;64.40;;;28.08;23.82;95408.63;10418705;28;1872;-73
2022/05/11 15:13:31;;;;;;;;;;;28.90;63.60;;;28.13;23.17;95406.25;10419317;28;1889;-72
2022/05/11 15:18:35;;;;;;;;;;;28.90;62.50;;;27.98;23.38;95405.44;10432945;28;1865;-73
2022/05/11 15:23:37;;;;;;;;;;;28.90;62.90;;;28.00;23.74;95416.91;10433820;28;1918;-73
2022/05/11 15:28:41;;;;;;;;;;;28.90;63.00;;;27.79;23.21;95416.88;10435472;28;1679;-72
2022/05/11 15:33:44;;;;;;;;;;;28.70;62.50;;;27.98;23.14;95410.97;10429846;28;1727;-73
2022/05/11 15:38:47;;;;;;;;;;;28.70;62.30;;;27.95;22.24;95406.25;10418091;28;2083;-73
2022/05/11 15:43:50;;;;;;;;;;;28.70;61.40;;;27.80;21.60;95399.13;10423667;28;1919;-72
2022/05/11 15:48:53;;;;;;;;;;;28.60;60.40;;;27.63;22.41;95397.13;10438135;28;1835;-73
2022/05/11 15:53:56;;;;;;;;;;;28.50;60.80;;;27.15;22.94;95391.91;10415167;28;1836;-72
2022/05/11 15:59:00;;;;;;;;;;;28.30;60.70;;;27.30;22.44;95390.78;10417399;28;1754;-73
2022/05/11 16:04:03;;;;;;;;;;;28.20;60.60;;;27.07;22.10;95391.09;10435671;28;1914;-72
2022/05/11 16:09:06;;;;;;;;;;;28.00;60.20;;;26.96;22.21;95390.22;10417853;28;1806;-72
2022/05/11 16:14:10;;;;;;;;;;;27.80;59.60;;;26.72;20.93;95397.25;10424433;28;1829;-73
2022/05/11 16:24:34;;;;;;;;;;;27.50;58.80;;;26.40;21.14;95381.31;10426650;28;1977;-71
2022/05/11 16:29:37;;;;;;;;;;;27.30;58.40;;;26.37;20.96;95379.28;10422200;28;1818;-72
2022/05/11 16:34:42;;;;;;;;;;;27.30;57.80;;;26.23;21.64;95376.44;10422600;28;1648;-73
2022/05/11 16:39:45;;;;;;;;;;;27.10;58.40;;;26.11;21.88;95374.00;10432286;28;1949;-72
2022/05/11 16:44:48;;;;;;;;;;;26.90;58.60;;;25.92;21.97;95374.28;10419865;28;1956;-73
2022/05/11 16:49:52;;;;;;;;;;;27.00;58.90;;;25.86;21.57;95371.84;10430702;28;1875;-71
2022/05/11 16:54:55;;;;;;;;;;;26.60;57.90;;;25.64;22.35;95370.09;10426591;28;1848;-73
2022/05/11 16:59:58;;;;;;;;;;;26.60;58.40;;;25.39;22.80;95380.09;10415165;28;1854;-71
2022/05/11 17:05:02;;;;;;;;;;;26.40;59.20;;;25.34;22.69;95365.50;10434963;28;1906;-73
2022/05/11 17:10:05;;;;;;;;;;;26.40;59.10;;;25.21;23.21;95380.69;10423773;28;1868;-71
2022/05/11 17:15:10;;;;;;;;;;;26.20;59.70;;;24.96;24.31;95379.59;10415017;28;1777;-73
2022/05/11 17:20:13;;;;;;;;;;;26.10;60.60;;;24.72;24.90;95378.91;10430998;28;1814;-73
2022/05/11 17:25:16;;;;;;;;;;;25.80;61.00;;;24.57;24.68;95379.13;10410437;28;1984;-72
2022/05/11 17:30:20;;;;;;;;;;;;;;;24.42;25.16;95375.38;10435843;28;1824;-77
2022/05/11 17:35:23;;;;;;;;;;;25.50;61.50;;;24.46;27.68;95381.72;10442097;28;1798;-77
2022/05/11 17:40:26;;;;;;;;;;;25.30;63.00;;;24.12;25.95;95386.31;10435564;28;1853;-74
2022/05/11 17:45:30;;;;;;;;;;;25.10;63.20;;;23.98;26.07;95390.44;10430974;28;1918;-73
2022/05/11 17:50:33;;;;;;;;;;;25.00;63.00;;;23.90;27.30;95393.41;10449532;28;1964;-73
2022/05/11 17:55:37;;;;;;;;;;;25.00;64.40;;;23.94;28.20;95394.28;10433474;28;1818;-73
2022/05/11 18:00:40;;;;;;;;;;;24.80;70.20;;;23.63;26.66;95395.34;10458556;28;1880;-74
2022/05/11 18:05:44;;;;;;;;;;;24.70;77.30;;;23.44;27.35;95396.94;10444934;28;1910;-75
2022/05/11 18:10:54;;;;;;;;;;;24.50;63.70;;;23.43;26.50;95405.56;10467709;28;1879;-74
2022/05/11 18:15:57;;;;;;;;;;;24.30;65.00;;;23.22;27.90;95408.69;10438686;28;1979;-75
2022/05/11 18:21:17;;;;;;;;;;;24.10;71.60;;;22.92;28.28;95408.50;10439010;28;1802;-77
2022/05/11 18:26:30;;;;;;;;;;;24.00;70.50;;;22.71;29.04;95408.81;10450533;28;1920;-73
2022/05/11 18:31:36;;;;;;;;;;;23.80;66.00;;;22.53;28.90;95404.94;10446004;28;1828;-72
2022/05/11 18:36:39;;;;;;;;;;;23.60;69.50;;;22.35;30.00;95415.50;10442703;28;1802;-72
2022/05/11 18:41:42;;;;;;;;;;;23.40;76.10;;;22.07;31.27;95421.88;10439540;28;2049;-73
2022/05/11 18:46:50;;;;;;;;;;;23.90;86.80;;;21.96;31.74;95436.47;10436844;28;2001;-73
2022/05/11 18:51:54;;;;;;;;;;;23.20;92.70;;;21.85;34.60;95437.00;10432082;28;1947;-79
2022/05/11 18:56:58;;;;;;;;;;;22.80;72.90;;;21.63;33.12;95434.91;10424096;28;1989;-72
2022/05/11 19:02:02;;;;;;;;;;;22.20;71.70;;;21.69;31.96;95440.88;10449479;28;1837;-75
2022/05/11 19:07:05;;;;;;;;;;;22.50;70.30;;;21.46;35.41;95446.16;10426082;28;1930;-76
2022/05/11 19:12:08;;;;;;;;;;;22.60;72.30;;;21.37;33.44;95448.25;10429292;28;1806;-71
2022/05/11 19:17:12;;;;;;;;;;;22.40;71.20;;;21.22;34.38;95450.59;10445771;28;1860;-71
2022/05/11 19:22:15;;;;;;;;;;;22.40;71.80;;;21.17;34.62;95455.50;10437970;28;1826;-71
2022/05/11 19:27:19;;;;;;;;;;;22.10;72.40;;;21.14;35.18;95456.22;10433923;28;1972;-71
2022/05/11 19:32:22;;;;;;;;;;;22.10;72.90;;;21.08;35.59;95468.53;10451555;28;1829;-72
2022/05/11 19:37:25;;;;;;;;;;;22.00;73.40;;;20.97;36.26;95469.03;10440369;28;1801;-72
2022/05/11 19:42:29;;;;;;;;;;;21.90;74.00;;;20.96;36.25;95469.38;10433755;28;1777;-72
2022/05/11 19:47:32;;;;;;;;;;;21.90;87.20;;;20.85;37.00;95471.81;10459220;28;1977;-71
2022/05/11 19:52:35;;;;;;;;;;;21.80;88.80;;;20.89;37.28;95478.16;10432831;28;1836;-73
2022/05/11 19:57:38;;;;;;;;;;;21.70;87.70;;;20.77;38.12;95480.94;10439015;28;1873;-73
2022/05/11 20:02:41;;;;;;;;;;;21.80;76.50;;;20.62;38.88;95478.94;10442260;28;1805;-73
2022/05/11 20:07:44;;;;;;;;;;;21.70;77.00;;;20.68;39.04;95483.03;10430188;28;1977;-71
2022/05/11 20:12:48;;;;;;;;;;;21.60;77.50;;;20.54;39.64;95477.13;10423449;28;1826;-72
2022/05/11 20:17:51;;;;;;;;;;;21.50;78.20;;;20.59;39.75;95482.34;10437793;28;1806;-72
2022/05/11 20:22:55;;;;;;;;;;;21.40;78.50;;;20.49;40.51;95487.16;10423608;28;1853;-72
2022/05/11 20:27:58;;;;;;;;;;;21.50;79.30;;;20.43;40.95;95493.16;10417598;28;1983;-72
2022/05/11 20:38:22;;;;;;;;;;;21.40;80.00;;;20.08;42.17;95499.06;10428165;28;1920;-71
2022/05/11 20:43:26;;;;;;;;;;;21.20;80.60;;;20.16;42.24;95497.34;10416088;28;1856;-72
2022/05/11 20:48:30;;;;;;;;;;;21.10;81.30;;;20.01;42.99;95507.03;10425312;28;2007;-72
2022/05/11 20:53:33;;;;;;;;;;;21.00;81.70;;;19.84;43.48;95508.03;10427761;28;1869;-72
2022/05/11 20:58:36;;;;;;;;;;;20.90;82.40;;;19.82;43.91;95513.03;10433108;28;1793;-71
2022/05/11 21:03:39;;;;;;;;;;;20.90;83.00;;;19.67;44.43;95517.22;10419203;28;1774;-71
2022/05/11 21:08:43;;;;;;;;;;;20.70;83.40;;;19.62;45.00;95513.91;10435101;28;1985;-72
2022/05/11 21:13:47;;;;;;;;;;;20.70;84.00;;;19.67;45.29;95514.50;10439430;28;1813;-72
2022/05/11 21:18:50;;;;;;;;;;;20.60;84.60;;;19.59;45.42;95520.03;10425443;28;1876;-72
2022/05/11 21:23:54;;;;;;;;;;;20.60;84.90;;;19.57;45.72;95523.06;10428976;28;1888;-72
2022/05/11 21:28:58;;;;;;;;;;;20.50;85.20;;;19.54;46.10;95520.22;10424573;28;1941;-71
2022/05/11 21:34:01;;;;;;;;;;;20.50;85.90;;;19.41;46.86;95525.63;10432116;28;2038;-72
2022/05/11 21:39:04;;;;;;;;;;;20.30;86.50;;;19.36;47.48;95519.59;10433117;28;1810;-72
2022/05/11 21:44:07;;;;;;;;;;;20.20;87.00;;;19.29;47.59;95517.41;10422239;28;1913;-70
2022/05/11 21:49:10;;;;;;;;;;;20.30;90.60;;;19.13;48.38;95524.59;10438927;28;1891;-72
2022/05/11 21:54:12;;;;;;;;;;;20.30;98.90;;;19.05;48.71;95525.47;10436863;28;1786;-71
2022/05/11 21:59:15;;;;;;;;;;;19.70;99.90;;;19.13;48.89;95530.84;10441678;28;1774;-72
2022/05/11 22:04:19;;;;;;;;;;;19.90;99.90;;;19.00;49.43;95525.69;10438456;28;1914;-71
2022/05/11 22:09:22;;;;;;;;;;;19.90;99.90;;;18.92;50.01;95529.28;10442646;28;1746;-71
2022/05/11 22:14:25;;;;;;;;;;;19.80;99.90;;;18.93;49.96;95531.66;10426950;28;1766;-71
2022/05/11 22:19:29;;;;;;;;;;;19.80;99.90;;;18.87;50.30;95541.16;10431336;28;1711;-73
2022/05/11 22:24:32;;;;;;;;;;;19.70;99.90;;;18.83;50.50;95532.88;10431028;28;1910;-71
2022/05/11 22:29:36;;;;;;;;;;;19.70;99.90;;;18.72;51.10;95544.50;10422032;28;1917;-71
2022/05/11 22:34:39;;;;;;;;;;;19.90;91.00;;;18.69;51.35;95535.03;10416097;28;1864;-72
2022/05/11 22:39:43;;;;;;;;;;;19.80;91.30;;;18.60;51.79;95535.06;10418390;28;1698;-72
2022/05/11 22:44:46;;;;;;;;;;;19.70;91.80;;;18.62;52.09;95535.53;10417196;28;1992;-71
2022/05/11 22:49:49;;;;;;;;;;;19.60;92.00;;;18.42;52.91;95541.75;10421785;28;1810;-73
2022/05/11 22:54:52;;;;;;;;;;;19.50;92.50;;;18.32;53.26;95548.38;10433515;28;1877;-73
2022/05/11 22:59:55;;;;;;;;;;;19.40;93.00;;;18.26;53.72;95548.91;10423233;28;1801;-71
2022/05/11 23:04:58;;;;;;;;;;;19.20;93.40;;;18.09;54.53;95544.31;10420264;28;1976;-72
2022/05/11 23:10:01;;;;;;;;;;;19.20;93.80;;;18.10;54.83;95556.78;10425658;28;2024;-71
2022/05/11 23:15:05;;;;;;;;;;;19.30;94.40;;;18.01;55.00;95556.03;10413016;28;1786;-72
2022/05/11 23:20:09;;;;;;;;;;;19.10;94.70;;;17.99;55.34;95553.63;10421165;28;1874;-71
2022/05/11 23:25:12;;;;;;;;;;;19.00;94.90;;;17.92;56.06;95552.53;10429498;28;1918;-71
2022/05/11 23:30:16;;;;;;;;;;;19.00;95.40;;;17.92;55.64;95550.63;10438080;28;1873;-72
2022/05/11 23:35:19;;;;;;;;;;;18.90;95.60;;;17.92;55.93;95556.06;10412086;28;1798;-71
2022/05/11 23:40:22;;;;;;;;;;;18.90;95.70;;;17.99;55.80;95553.63;10434469;28;1857;-72
2022/05/11 23:45:25;;;;;;;;;;;18.90;96.00;;;17.94;55.80;95555.72;10413475;28;1976;-72
2022/05/11 23:50:29;;;;;;;;;;;18.90;95.70;;;17.93;55.46;95554.13;10433420;28;1877;-71
2022/05/11 23:55:32;;;;;;;;;;;18.90;95.70;;;18.00;55.43;95547.06;10436525;28;1813;-72
